Weather reports worldwide

Advertisment
Kew Gardens, United Kingdom (99095): temperature & dewpoint: 17.01.2019 02:00:00 - 23.01.2019 02:00:00 (GMT)Kew Gardens, United Kingdom (99095): temperature -20cm & temperature -100cm: 17.01.2019 02:00:00 - 23.01.2019 02:00:00 (GMT)Kew Gardens, United Kingdom (99095): wind speed & gusts: 17.01.2019 02:00:00 - 23.01.2019 02:00:00 (GMT)Kew Gardens, United Kingdom (99095): wind direction: 17.01.2019 02:00:00 - 23.01.2019 02:00:00 (GMT)Kew Gardens, United Kingdom (99095): precipitation: 17.01.2019 02:00:00 - 23.01.2019 02:00:00 (GMT)
Date & Time tt [°C] td [°C] tt -20cm [°C] tt -100cm [°C] ff [km/h] ff [kn] fx [km/h] fx [kn] dd rr [mm]
23.01.2019 02:00:00 - - - - - - - - - -
23.01.2019 01:00:00 0,6 0,4 - - 4 2 - - NW 0,0
23.01.2019 00:00:00 0,2 0,0 - - 5 3 - - NW 0,0
22.01.2019 23:00:00 -0,7 -1,1 - - 4 2 - - NW 0,0
22.01.2019 22:00:00 0,4 0,2 - - 5 3 - - WNW 0,0
22.01.2019 21:00:00 0,0 -0,3 - - 4 2 - - NW 0,2
22.01.2019 20:00:00 0,2 -0,1 - - 2 1 - - S 0,0
22.01.2019 19:00:00 0,3 -0,2 - - 0 0 - - N 0,2
22.01.2019 18:00:00 1,1 0,5 - - 2 1 - - S 0,8
22.01.2019 17:00:00 1,2 0,4 - - 2 1 - - SE 0,8
22.01.2019 16:00:00 1,7 0,4 - - 8 4 - - W 1,0
22.01.2019 15:00:00 4,7 0,5 - - 4 2 - - SSW 0,0
22.01.2019 14:00:00 5,8 -0,6 - - 9 5 - - SW 0,0
22.01.2019 13:00:00 6,3 0,2 - - 9 5 - - W 0,0
22.01.2019 12:00:00 6,2 1,8 - - 9 5 - - W 0,0
22.01.2019 11:00:00 4,4 0,8 - - 11 6 - - W 0,0
22.01.2019 10:00:00 2,0 1,5 - - 8 4 - - WSW 0,0
22.01.2019 09:00:00 -0,3 -0,8 4,7 7,7 5 3 - - SSW 0,0
22.01.2019 08:00:00 0,9 0,4 - - 5 3 - - WSW 0,0
22.01.2019 07:00:00 1,2 0,3 - - 5 3 - - WSW 0,0
22.01.2019 06:00:00 2,9 1,4 - - 8 4 - - W 0,0
22.01.2019 05:00:00 3,8 2,1 - - 8 4 - - W 0,0
22.01.2019 04:00:00 4,7 3,7 - - 11 6 - - W 0,2
22.01.2019 03:00:00 5,6 4,7 - - 9 5 - - WSW 3,2
22.01.2019 02:00:00 5,8 5,1 - - 8 4 - - SSW 2,2
22.01.2019 01:00:00 5,7 4,6 - - 11 6 - - S 0,6
22.01.2019 00:00:00 5,2 3,1 - - 9 5 - - S 0,0
21.01.2019 23:00:00 5,1 2,6 - - 13 7 - - S 0,0
21.01.2019 22:00:00 4,7 2,1 - - 11 6 - - S 0,0
21.01.2019 21:00:00 4,1 1,6 - - 9 5 - - S 0,0
21.01.2019 20:00:00 2,9 0,7 - - 5 3 - - SSW 0,0
21.01.2019 19:00:00 3,3 0,5 - - 8 4 - - S 0,0
21.01.2019 18:00:00 4,1 0,1 - - 8 4 - - SW 0,0
21.01.2019 17:00:00 4,6 -0,2 - - 9 5 - - WSW 0,0
21.01.2019 16:00:00 4,7 -0,3 - - 8 4 - - SW 0,0
21.01.2019 15:00:00 5,2 -0,5 - - 11 6 - - SW 0,0
21.01.2019 14:00:00 5,4 0,0 - - 5 3 - - WSW 0,0
21.01.2019 13:00:00 6,1 2,1 - - 5 3 - - WSW 0,0
21.01.2019 12:00:00 2,6 1,6 - - 2 1 - - SW 0,0
21.01.2019 11:00:00 1,4 1,0 - - 2 1 - - WSW 0,0
21.01.2019 10:00:00 0,3 0,1 - - 4 2 - - SSW 0,0
21.01.2019 09:00:00 -0,8 -1,0 4,2 8,0 4 2 - - W 0,0
21.01.2019 08:00:00 -1,3 -1,6 - - 4 2 - - SW 0,0
21.01.2019 07:00:00 -1,1 -1,4 - - 4 2 - - SSW 0,0
21.01.2019 06:00:00 -1,2 -1,5 - - 2 1 - - SW 0,0
21.01.2019 05:00:00 -2,0 -2,3 - - 4 2 - - WSW 0,0
21.01.2019 04:00:00 -2,5 -2,8 - - 4 2 - - SSW 0,0
21.01.2019 03:00:00 -2,9 -3,4 - - 2 1 - - W 0,0
21.01.2019 02:00:00 -3,2 -3,6 - - 5 3 - - NW 0,0
21.01.2019 01:00:00 -3,2 -3,7 - - 2 1 - - WNW 0,0
21.01.2019 00:00:00 -3,1 -3,7 - - 2 1 - - NW 0,0
20.01.2019 23:00:00 -2,4 -2,8 - - 2 1 - - NW 0,0
20.01.2019 22:00:00 -2,5 -3,0 - - 0 0 - - N 0,0
20.01.2019 21:00:00 -2,3 -3,0 - - 2 1 - - NW 0,0
20.01.2019 20:00:00 -1,7 -3,0 - - 2 1 - - NNW 0,0
20.01.2019 19:00:00 0,6 -2,3 - - 4 2 - - N 0,0
20.01.2019 18:00:00 2,4 -1,7 - - 4 2 - - N 0,0
20.01.2019 17:00:00 3,2 -1,9 - - 5 3 - - N 0,0
20.01.2019 16:00:00 4,8 -1,7 - - 5 3 - - N 0,0
20.01.2019 15:00:00 5,5 -2,2 - - 8 4 - - N 0,0
20.01.2019 14:00:00 5,6 -2,3 - - 5 3 - - NE 0,0
20.01.2019 13:00:00 5,3 -1,2 - - 5 3 - - NNE 0,0
20.01.2019 12:00:00 4,7 -0,8 - - 4 2 - - N 0,0
20.01.2019 11:00:00 3,7 -0,4 - - 4 2 - - N 0,0
20.01.2019 10:00:00 1,9 -0,7 - - 4 2 - - N 0,0
20.01.2019 09:00:00 1,5 -0,6 4,9 8,0 4 2 - - N 0,0
20.01.2019 08:00:00 1,2 -0,1 - - 2 1 - - N 0,0
20.01.2019 07:00:00 1,0 0,0 - - 2 1 - - S 0,0
20.01.2019 06:00:00 0,8 0,1 - - 4 2 - - ESE 0,0
20.01.2019 05:00:00 0,0 -0,2 - - 4 2 - - E 0,0
20.01.2019 04:00:00 -1,7 -2,0 - - 4 2 - - ENE 0,0
20.01.2019 03:00:00 -2,3 -2,9 - - 4 2 - - NNE 0,0
20.01.2019 02:00:00 -1,5 -2,1 - - 4 2 - - NE 0,0
20.01.2019 01:00:00 -0,7 -1,6 - - 4 2 - - NNE 0,0
20.01.2019 00:00:00 0,3 -1,1 - - 4 2 - - NNE 0,0
19.01.2019 23:00:00 2,1 -0,2 - - 5 3 - - E 0,0
19.01.2019 22:00:00 3,5 0,1 - - 8 4 - - ESE 0,0
19.01.2019 21:00:00 4,3 1,0 - - 8 4 - - ESE 0,0
19.01.2019 20:00:00 4,4 1,7 - - 8 4 - - ESE 0,0
19.01.2019 19:00:00 4,6 2,0 - - 8 4 - - ESE 0,0
19.01.2019 18:00:00 4,8 2,3 - - 9 5 - - E 0,0
19.01.2019 17:00:00 5,0 2,8 - - 8 4 - - ESE 0,0
19.01.2019 16:00:00 5,1 3,1 - - 9 5 - - ESE 0,0
19.01.2019 15:00:00 5,4 3,3 - - 9 5 - - SE 0,0
19.01.2019 14:00:00 5,5 3,0 - - 9 5 - - ESE 0,0
19.01.2019 13:00:00 5,7 2,7 - - 11 6 - - SE 0,0
19.01.2019 12:00:00 5,2 2,1 - - 11 6 - - ESE 0,0
19.01.2019 11:00:00 4,6 1,5 - - 11 6 - - ESE 0,0
19.01.2019 10:00:00 4,3 1,4 - - 9 5 - - ESE 0,0
19.01.2019 09:00:00 3,9 1,5 5,0 8,2 11 6 - - SE 0,0
19.01.2019 08:00:00 3,7 0,7 - - 8 4 - - SE 0,0
19.01.2019 07:00:00 3,7 0,5 - - 11 6 - - SE 0,0
19.01.2019 06:00:00 3,6 -0,2 - - 9 5 - - ESE 0,0
19.01.2019 05:00:00 3,7 -0,5 - - 11 6 - - ESE 0,0
19.01.2019 04:00:00 3,7 -0,6 - - 9 5 - - SE 0,0
19.01.2019 03:00:00 3,2 -0,5 - - 9 5 - - SE 0,0
19.01.2019 02:00:00 2,2 -1,1 - - 8 4 - - SE 0,0
19.01.2019 01:00:00 2,2 -1,3 - - 9 5 - - ESE 0,0
19.01.2019 00:00:00 2,3 -1,1 - - 8 4 - - ESE 0,0
18.01.2019 23:00:00 2,3 -1,3 - - 8 4 - - SE 0,0
18.01.2019 22:00:00 2,3 -1,3 - - 5 3 - - ESE 0,0
18.01.2019 21:00:00 3,0 -1,2 - - 9 5 - - SE 0,0
18.01.2019 20:00:00 3,1 -1,2 - - 9 5 - - SE 0,0
18.01.2019 19:00:00 3,5 -1,0 - - 9 5 - - SSE 0,0
18.01.2019 18:00:00 4,1 -0,6 - - 11 6 - - SSE 0,0
18.01.2019 17:00:00 4,1 -1,4 - - 11 6 - - S 0,0
18.01.2019 16:00:00 5,8 -1,2 - - 15 8 - - S 0,0
18.01.2019 15:00:00 6,3 -0,6 - - 8 4 - - S 0,0
18.01.2019 14:00:00 6,5 -0,9 - - 15 8 - - S 0,0
18.01.2019 13:00:00 6,6 1,2 - - 9 5 - - SSE 0,0
18.01.2019 12:00:00 6,0 0,7 - - 8 4 - - SE 0,0
18.01.2019 11:00:00 3,8 -0,4 - - 8 4 - - SE 0,0
18.01.2019 10:00:00 -0,1 -0,8 - - 2 1 - - ESE 0,0
18.01.2019 09:00:00 -2,0 -2,3 5,4 8,7 2 1 - - ESE 0,0
18.01.2019 08:00:00 -2,5 -3,0 - - 0 0 - - N 0,0
18.01.2019 07:00:00 -2,5 -3,0 - - 0 0 - - N 0,0
18.01.2019 06:00:00 -2,1 -2,9 - - 0 0 - - N 0,0
18.01.2019 05:00:00 -1,8 -2,6 - - 0 0 - - N 0,0
18.01.2019 04:00:00 -1,7 -2,4 - - 2 1 - - S 0,0
18.01.2019 03:00:00 -1,6 -2,3 - - 0 0 - - N 0,0
18.01.2019 02:00:00 -2,0 -2,9 - - 0 0 - - N 0,0
18.01.2019 01:00:00 -1,8 -3,0 - - 0 0 - - N 0,0
18.01.2019 00:00:00 -1,7 -3,1 - - 0 0 - - N 0,0
17.01.2019 23:00:00 -1,4 -2,9 - - 2 1 - - W 0,0
17.01.2019 22:00:00 -0,6 -3,3 - - 4 2 - - NW 0,0
17.01.2019 21:00:00 -0,7 -3,2 - - 5 3 - - WNW 0,0
17.01.2019 20:00:00 -0,6 -3,5 - - 4 2 - - WSW 0,0
17.01.2019 19:00:00 2,2 -3,4 - - 4 2 - - NNW 0,0
17.01.2019 18:00:00 2,7 -3,4 - - 8 4 - - WNW 0,0
17.01.2019 17:00:00 2,6 -3,9 - - 8 4 - - WNW 0,0
17.01.2019 16:00:00 4,3 -4,0 - - 18 10 - - NW 0,0
17.01.2019 15:00:00 5,0 -4,2 - - 21 11 - - NW 0,0
17.01.2019 14:00:00 4,8 -4,3 - - 22 12 46 25 NW 0,0
17.01.2019 13:00:00 4,4 -3,5 - - 16 9 - - NW 0,0
17.01.2019 12:00:00 4,1 -2,7 - - 18 10 - - NW 0,0
17.01.2019 11:00:00 3,4 -2,2 - - 21 11 - - NW 0,0
17.01.2019 10:00:00 2,3 -0,9 - - 16 9 - - NW 0,0
17.01.2019 09:00:00 2,4 0,2 6,7 8,7 11 6 - - NNW 0,6
17.01.2019 08:00:00 4,0 2,2 - - 15 8 - - NW 0,0
17.01.2019 07:00:00 3,3 2,1 - - 8 4 - - WNW 0,0
17.01.2019 06:00:00 3,6 2,2 - - 13 7 - - WNW 0,0
17.01.2019 05:00:00 4,2 2,9 - - 11 6 - - WNW 0,0
17.01.2019 04:00:00 4,4 3,6 - - 11 6 - - WNW 0,2
17.01.2019 03:00:00 4,2 4,1 - - 8 4 - - W 0,0
17.01.2019 02:00:00 3,4 3,3 - - 5 3 - - WSW 0,0

tt = temperature
td = dewpoint
tt -20cm = temperature -20cm
tt -100cm = temperature -100cm
ff = wind speed
fx = gusts
dd = wind direction
rr = precipitation

Next stations